createdAt,value
2023-03-13T00:01:56.843Z,6.80
2023-03-13T00:04:23.429Z,6.80
2023-03-13T00:06:49.942Z,6.90
2023-03-13T00:09:17.171Z,6.90
2023-03-13T00:11:44.500Z,7.00
2023-03-13T00:14:11.487Z,6.80
2023-03-13T00:16:39.460Z,6.90
2023-03-13T00:19:06.744Z,6.90
2023-03-13T00:21:33.581Z,6.80
2023-03-13T00:24:00.431Z,6.80
2023-03-13T00:26:30.033Z,6.80
2023-03-13T00:28:56.577Z,6.70
2023-03-13T00:31:24.682Z,6.70
2023-03-13T00:33:52.568Z,6.70
2023-03-13T00:36:21.047Z,6.70
2023-03-13T00:38:48.918Z,6.70
2023-03-13T00:41:17.602Z,6.80
2023-03-13T00:43:44.655Z,6.80
2023-03-13T00:46:11.793Z,6.80
2023-03-13T00:48:38.445Z,6.90
2023-03-13T00:51:05.266Z,6.80
2023-03-13T00:53:31.785Z,6.70
2023-03-13T00:56:00.350Z,6.70
2023-03-13T00:58:28.267Z,6.70
2023-03-13T01:00:55.058Z,6.70
2023-03-13T01:03:25.397Z,6.70
2023-03-13T01:05:59.243Z,6.70
2023-03-13T01:08:26.308Z,6.70
2023-03-13T01:10:59.833Z,6.70
2023-03-13T01:13:26.637Z,6.60
2023-03-13T01:15:53.190Z,6.60
2023-03-13T01:18:20.982Z,6.60
2023-03-13T01:20:47.500Z,6.60
2023-03-13T01:23:14.229Z,6.60
2023-03-13T01:25:40.788Z,6.60
2023-03-13T01:28:09.415Z,6.60
2023-03-13T01:30:35.933Z,6.50
2023-03-13T01:33:02.569Z,6.50
2023-03-13T01:35:29.217Z,6.50
2023-03-13T01:37:55.835Z,6.50
2023-03-13T01:40:24.433Z,6.50
2023-03-13T01:42:51.854Z,6.50
2023-03-13T01:45:37.004Z,6.50
2023-03-13T01:48:04.544Z,6.50
2023-03-13T01:50:31.176Z,6.60
2023-03-13T01:52:57.751Z,6.60
2023-03-13T01:55:24.415Z,6.60
2023-03-13T01:57:51.839Z,6.70
2023-03-13T02:00:31.127Z,6.60
2023-03-13T02:02:58.872Z,6.60
2023-03-13T02:05:26.453Z,6.60
2023-03-13T02:08:05.070Z,6.60
2023-03-13T02:10:32.150Z,6.60
2023-03-13T02:13:10.793Z,6.60
2023-03-13T02:15:37.498Z,6.60
2023-03-13T02:18:04.128Z,6.50
2023-03-13T02:20:30.925Z,6.50
2023-03-13T02:23:04.676Z,6.50
2023-03-13T02:25:37.319Z,6.50
2023-03-13T02:28:06.757Z,6.50
2023-03-13T02:30:34.689Z,6.50
2023-03-13T02:36:33.280Z,6.40
2023-03-13T02:39:02.632Z,6.40
2023-03-13T02:41:29.435Z,6.30
2023-03-13T02:43:56.072Z,6.30
2023-03-13T02:46:22.793Z,6.40
2023-03-13T02:48:51.106Z,6.30
2023-03-13T02:51:33.139Z,6.30
2023-03-13T02:54:05.141Z,6.40
2023-03-13T02:56:33.327Z,6.40
2023-03-13T02:58:59.859Z,6.40
2023-03-13T03:01:26.406Z,6.30
2023-03-13T03:03:53.067Z,6.30
2023-03-13T03:06:21.396Z,6.30
2023-03-13T03:08:47.893Z,6.30
2023-03-13T03:11:14.489Z,6.30
2023-03-13T03:13:41.011Z,6.30
2023-03-13T03:16:08.654Z,6.30
2023-03-13T03:18:35.775Z,6.20
2023-03-13T03:21:05.008Z,6.20
2023-03-13T03:23:34.843Z,6.20
2023-03-13T03:26:01.936Z,6.20
2023-03-13T03:28:28.584Z,6.20
2023-03-13T03:30:55.384Z,6.20
2023-03-13T03:33:22.648Z,6.30
2023-03-13T03:35:49.660Z,6.30
2023-03-13T03:38:16.455Z,6.30
2023-03-13T03:40:43.270Z,6.40
2023-03-13T03:43:09.794Z,6.40
2023-03-13T03:45:36.351Z,6.50
2023-03-13T03:48:02.910Z,6.60
2023-03-13T03:50:29.416Z,6.80
2023-03-13T03:52:55.982Z,6.80
2023-03-13T03:55:22.514Z,6.80
2023-03-13T03:57:49.049Z,6.80
2023-03-13T04:00:16.170Z,6.80
2023-03-13T04:02:43.124Z,6.70
2023-03-13T04:05:09.746Z,6.80
2023-03-13T04:07:36.470Z,6.80
2023-03-13T04:10:03.638Z,6.90
2023-03-13T04:12:31.394Z,7.00
2023-03-13T04:14:57.904Z,7.00
2023-03-13T04:17:24.590Z,7.10
2023-03-13T04:19:51.125Z,7.20
2023-03-13T04:22:17.633Z,7.20
2023-03-13T04:24:44.213Z,7.20
2023-03-13T04:27:10.717Z,7.20
2023-03-13T04:29:37.241Z,7.20
2023-03-13T04:32:03.974Z,7.20
2023-03-13T04:34:30.551Z,7.40
2023-03-13T04:36:57.079Z,7.40
2023-03-13T04:39:26.675Z,7.50
2023-03-13T04:41:53.695Z,7.50
2023-03-13T04:44:20.744Z,7.60
2023-03-13T04:46:47.306Z,7.60
2023-03-13T04:49:14.532Z,7.60
2023-03-13T04:51:41.944Z,7.60
2023-03-13T04:54:08.711Z,7.50
2023-03-13T04:56:43.180Z,7.60
2023-03-13T04:59:14.155Z,7.60
2023-03-13T05:01:40.971Z,7.60
2023-03-13T05:04:07.514Z,7.60
2023-03-13T05:06:34.065Z,7.50
2023-03-13T05:09:00.793Z,7.40
2023-03-13T05:11:27.333Z,7.40
2023-03-13T05:13:53.877Z,7.30
2023-03-13T05:16:20.458Z,7.30
2023-03-13T05:18:47.064Z,7.30
2023-03-13T05:21:13.641Z,7.30
2023-03-13T05:23:40.171Z,7.30
2023-03-13T05:26:06.734Z,7.20
2023-03-13T05:28:33.295Z,7.30
2023-03-13T05:31:00.004Z,7.30
2023-03-13T05:33:26.591Z,7.30
2023-03-13T05:35:53.176Z,7.30
2023-03-13T05:38:19.718Z,7.30
2023-03-13T05:40:46.237Z,7.30
2023-03-13T05:43:12.867Z,7.30
2023-03-13T05:45:39.384Z,7.40
2023-03-13T05:48:06.130Z,7.40
2023-03-13T05:50:32.694Z,7.30
2023-03-13T05:52:59.272Z,7.40
2023-03-13T05:55:25.866Z,7.40
2023-03-13T05:57:52.409Z,7.50
2023-03-13T06:00:19.434Z,7.60
2023-03-13T06:02:46.084Z,7.80
2023-03-13T06:05:13.003Z,7.90
2023-03-13T06:07:39.523Z,7.90
2023-03-13T06:10:06.283Z,8.00
2023-03-13T06:12:32.857Z,8.00
2023-03-13T06:14:59.491Z,8.10
2023-03-13T06:17:26.068Z,8.20
2023-03-13T06:19:52.592Z,8.30
2023-03-13T06:22:19.174Z,8.30
2023-03-13T06:24:46.865Z,8.30
2023-03-13T06:27:13.435Z,8.30
2023-03-13T06:29:39.930Z,8.30
2023-03-13T06:32:07.235Z,8.30
2023-03-13T06:34:34.087Z,8.40
2023-03-13T06:37:01.588Z,8.40
2023-03-13T06:39:28.148Z,8.30
2023-03-13T06:41:54.704Z,8.40
2023-03-13T06:44:21.210Z,8.40
2023-03-13T06:46:47.895Z,8.40
2023-03-13T06:49:14.528Z,8.50
2023-03-13T06:51:41.086Z,8.50
2023-03-13T06:54:07.813Z,8.60
2023-03-13T06:56:34.313Z,8.60
2023-03-13T06:59:00.869Z,8.70
2023-03-13T07:01:27.458Z,8.70
2023-03-13T07:03:54.099Z,8.70
2023-03-13T07:06:20.679Z,8.80
2023-03-13T07:08:47.202Z,8.90
2023-03-13T07:11:14.316Z,8.90
2023-03-13T07:13:40.878Z,8.90
2023-03-13T07:16:08.778Z,8.90
2023-03-13T07:18:35.359Z,8.90
2023-03-13T07:21:05.164Z,9.00
2023-03-13T07:23:32.307Z,8.90
2023-03-13T07:25:59.941Z,9.00
2023-03-13T07:28:27.049Z,9.00
2023-03-13T07:30:53.800Z,9.00
2023-03-13T07:33:20.366Z,9.00
2023-03-13T07:35:53.023Z,9.10
2023-03-13T07:38:20.151Z,9.10
2023-03-13T07:40:50.818Z,9.20
2023-03-13T07:43:17.394Z,9.20
2023-03-13T07:45:50.951Z,9.30
2023-03-13T07:48:17.744Z,9.40
2023-03-13T07:50:44.323Z,9.40
2023-03-13T07:53:14.122Z,9.50
2023-03-13T07:55:40.859Z,9.60
2023-03-13T07:58:08.035Z,9.70
2023-03-13T08:00:34.638Z,9.70
2023-03-13T08:03:01.626Z,9.70
2023-03-13T08:05:28.171Z,9.70
2023-03-13T08:07:54.691Z,9.70
2023-03-13T08:10:21.187Z,9.70
2023-03-13T08:12:47.775Z,9.70
2023-03-13T08:15:14.295Z,9.70
2023-03-13T08:17:40.809Z,9.70
2023-03-13T08:20:09.650Z,9.70
2023-03-13T08:22:38.096Z,9.80
2023-03-13T08:25:04.910Z,9.80
2023-03-13T08:27:31.460Z,9.80
2023-03-13T08:29:57.978Z,9.80
2023-03-13T08:32:24.504Z,9.80
2023-03-13T08:34:51.046Z,9.80
2023-03-13T08:37:17.618Z,9.80
2023-03-13T08:39:45.482Z,9.80
2023-03-13T08:42:14.311Z,9.80
2023-03-13T08:44:40.953Z,9.80
2023-03-13T08:47:07.697Z,9.80
2023-03-13T08:49:34.333Z,9.70
2023-03-13T08:52:00.854Z,9.70
2023-03-13T08:54:27.375Z,9.80
2023-03-13T08:56:53.951Z,9.80
2023-03-13T08:59:20.442Z,9.90
2023-03-13T09:01:47.007Z,9.90
2023-03-13T09:04:13.608Z,9.90
2023-03-13T09:06:40.302Z,10.00
2023-03-13T09:09:07.593Z,10.10
2023-03-13T09:11:35.756Z,10.10
2023-03-13T09:14:02.279Z,10.20
2023-03-13T09:16:29.696Z,10.20
2023-03-13T09:18:56.526Z,10.20
2023-03-13T09:21:24.332Z,10.20
2023-03-13T09:23:51.248Z,10.30
2023-03-13T09:26:19.975Z,10.30
2023-03-13T09:28:47.613Z,10.30
2023-03-13T09:31:15.225Z,10.40
2023-03-13T09:33:42.070Z,10.50
2023-03-13T09:36:09.437Z,10.60
2023-03-13T09:38:35.970Z,10.70
2023-03-13T09:41:23.020Z,10.80
2023-03-13T09:44:07.956Z,10.90
2023-03-13T09:46:34.454Z,10.90
2023-03-13T09:49:02.851Z,11.00
2023-03-13T09:51:36.843Z,11.10
2023-03-13T09:54:21.351Z,11.10
2023-03-13T09:56:50.975Z,11.20
2023-03-13T09:59:20.298Z,11.30
2023-03-13T10:01:47.524Z,11.40
2023-03-13T10:04:24.268Z,11.40
2023-03-13T10:06:52.089Z,11.40
2023-03-13T10:09:22.646Z,11.40
2023-03-13T10:12:03.510Z,11.40
2023-03-13T10:14:31.858Z,11.40
2023-03-13T10:17:10.196Z,11.40
2023-03-13T10:19:39.739Z,11.40
2023-03-13T10:22:14.949Z,11.50
2023-03-13T10:24:56.766Z,11.50
2023-03-13T10:27:23.442Z,11.40
2023-03-13T10:29:49.992Z,11.40
2023-03-13T10:32:17.547Z,11.40
2023-03-13T10:34:45.484Z,11.40
2023-03-13T10:37:13.811Z,11.40
2023-03-13T10:39:40.432Z,11.40
2023-03-13T10:42:11.382Z,11.40
2023-03-13T10:44:37.975Z,11.50
2023-03-13T10:47:04.886Z,11.50
2023-03-13T10:49:32.187Z,11.60
2023-03-13T10:52:02.911Z,11.70
2023-03-13T10:54:30.484Z,11.70
2023-03-13T10:57:15.922Z,11.60
2023-03-13T10:59:44.307Z,11.70
2023-03-13T11:02:29.864Z,11.70
2023-03-13T11:04:57.160Z,11.70
2023-03-13T11:07:34.593Z,11.70
2023-03-13T11:10:03.012Z,11.60
2023-03-13T11:12:35.488Z,11.60
2023-03-13T11:15:04.490Z,11.50
2023-03-13T11:17:37.500Z,11.50
2023-03-13T11:20:12.327Z,11.40
2023-03-13T11:22:38.807Z,11.30
2023-03-13T11:25:20.748Z,11.30
2023-03-13T11:27:50.602Z,11.30
2023-03-13T11:30:27.244Z,11.30
2023-03-13T11:33:00.166Z,11.30
2023-03-13T11:35:26.688Z,11.30
2023-03-13T11:37:55.621Z,11.40
2023-03-13T11:40:28.438Z,11.40
2023-03-13T11:43:22.033Z,11.50
2023-03-13T11:45:50.531Z,11.40
2023-03-13T11:48:17.026Z,11.50
2023-03-13T11:50:49.765Z,11.50
2023-03-13T11:53:24.389Z,11.60
2023-03-13T11:56:26.658Z,11.70
2023-03-13T11:59:16.402Z,11.80
2023-03-13T12:01:50.834Z,11.90
2023-03-13T12:04:25.316Z,12.00
2023-03-13T12:06:55.112Z,12.10
2023-03-13T12:09:28.390Z,12.20
2023-03-13T12:11:55.197Z,12.30
2023-03-13T12:14:25.020Z,12.50
2023-03-13T12:16:54.921Z,12.70
2023-03-13T12:19:50.801Z,12.90
2023-03-13T12:22:24.686Z,12.90
2023-03-13T12:25:03.749Z,12.80
2023-03-13T12:27:34.976Z,12.80
2023-03-13T12:30:21.860Z,12.80
2023-03-13T12:32:54.186Z,12.90
2023-03-13T12:35:23.865Z,13.00
2023-03-13T12:37:54.159Z,13.00
2023-03-13T12:40:23.552Z,13.10
2023-03-13T12:43:08.499Z,13.20
2023-03-13T12:45:36.148Z,13.40
2023-03-13T12:48:21.418Z,13.50
2023-03-13T12:50:48.432Z,13.50
2023-03-13T12:53:28.098Z,13.50
2023-03-13T12:56:06.611Z,13.50
2023-03-13T12:58:51.447Z,13.60
2023-03-13T13:01:23.911Z,13.70
2023-03-13T13:03:54.322Z,13.90
2023-03-13T13:06:20.911Z,13.80
2023-03-13T13:08:49.413Z,13.70
2023-03-13T13:11:37.460Z,13.70
2023-03-13T13:14:07.045Z,13.60
2023-03-13T13:16:33.724Z,13.70
2023-03-13T13:19:19.141Z,13.70
2023-03-13T13:21:48.698Z,13.70
2023-03-13T13:24:34.029Z,13.80
2023-03-13T13:27:01.108Z,13.80
2023-03-13T13:29:27.588Z,13.80
2023-03-13T13:32:00.314Z,13.70
2023-03-13T13:34:38.800Z,13.70
2023-03-13T13:37:20.729Z,13.60
2023-03-13T13:39:49.933Z,13.60
2023-03-13T13:42:28.855Z,13.50
2023-03-13T13:44:59.229Z,13.60
2023-03-13T13:47:27.717Z,13.60
2023-03-13T13:49:55.514Z,13.60
2023-03-13T13:52:40.650Z,13.70
2023-03-13T13:55:26.241Z,13.70
2023-03-13T13:58:19.524Z,13.70
2023-03-13T14:00:54.263Z,13.90
2023-03-13T14:03:31.625Z,14.00
2023-03-13T14:06:24.716Z,14.10
2023-03-13T14:08:54.250Z,14.00
2023-03-13T14:11:30.567Z,14.00
2023-03-13T14:14:15.603Z,14.00
2023-03-13T14:16:50.090Z,13.90
2023-03-13T14:19:35.056Z,13.90
2023-03-13T14:22:08.834Z,13.90
2023-03-13T14:24:35.920Z,13.80
2023-03-13T14:27:03.087Z,13.90
2023-03-13T14:29:31.149Z,13.90
2023-03-13T14:31:58.928Z,13.90
2023-03-13T14:34:31.560Z,13.80
2023-03-13T14:37:15.200Z,13.80
2023-03-13T14:39:45.548Z,13.80
2023-03-13T14:42:13.446Z,13.80
2023-03-13T14:44:41.492Z,13.70
2023-03-13T14:47:09.818Z,13.60
2023-03-13T14:49:36.775Z,13.60
2023-03-13T14:52:05.312Z,13.60
2023-03-13T14:54:33.237Z,13.60
2023-03-13T14:57:09.216Z,13.50
2023-03-13T14:59:36.453Z,13.50
2023-03-13T15:02:12.045Z,13.50
2023-03-13T15:04:51.597Z,13.40
2023-03-13T15:07:18.593Z,13.30
2023-03-13T15:09:46.032Z,13.20
2023-03-13T15:12:23.014Z,13.10
2023-03-13T15:14:50.902Z,13.10
2023-03-13T15:17:25.666Z,13.00
2023-03-13T15:19:56.499Z,13.00
2023-03-13T15:22:30.743Z,12.90
2023-03-13T15:25:06.922Z,12.90
2023-03-13T15:27:34.025Z,12.90
2023-03-13T15:30:00.857Z,12.90
2023-03-13T15:32:29.438Z,13.00
2023-03-13T15:35:01.715Z,13.00
2023-03-13T15:37:29.337Z,13.00
2023-03-13T15:39:56.308Z,13.10
2023-03-13T15:42:23.742Z,13.00
2023-03-13T15:44:50.250Z,12.90
2023-03-13T15:47:20.935Z,12.90
2023-03-13T15:49:47.693Z,12.90
2023-03-13T15:52:18.701Z,12.90
2023-03-13T15:54:45.816Z,13.00
2023-03-13T15:57:14.128Z,12.90
2023-03-13T15:59:41.439Z,12.90
2023-03-13T16:02:21.478Z,13.00
2023-03-13T16:04:48.386Z,12.90
2023-03-13T16:07:16.479Z,12.90
2023-03-13T16:09:43.666Z,12.90
2023-03-13T16:12:10.865Z,12.80
2023-03-13T16:14:37.914Z,12.70
2023-03-13T16:17:10.840Z,12.70
2023-03-13T16:19:37.486Z,12.60
2023-03-13T16:22:04.075Z,12.60
2023-03-13T16:24:30.685Z,12.60
2023-03-13T16:26:57.278Z,12.50
2023-03-13T16:29:23.874Z,12.50
2023-03-13T16:31:50.465Z,12.50
2023-03-13T16:34:17.001Z,12.50
2023-03-13T16:36:44.800Z,12.50
2023-03-13T16:39:13.786Z,12.50
2023-03-13T16:41:40.448Z,12.40
2023-03-13T16:44:07.108Z,12.40
2023-03-13T16:46:38.097Z,12.30
2023-03-13T16:49:05.287Z,12.20
2023-03-13T16:51:31.955Z,12.00
2023-03-13T16:54:03.553Z,11.90
2023-03-13T16:56:34.589Z,11.80
2023-03-13T16:59:02.084Z,11.70
2023-03-13T17:01:29.059Z,11.60
2023-03-13T17:03:56.479Z,11.50
2023-03-13T17:06:24.999Z,11.50
2023-03-13T17:08:51.879Z,11.60
2023-03-13T17:11:19.563Z,11.60
2023-03-13T17:13:47.564Z,11.60
2023-03-13T17:16:21.583Z,11.50
2023-03-13T17:18:50.018Z,11.60
2023-03-13T17:21:17.926Z,11.50
2023-03-13T17:23:44.848Z,11.50
2023-03-13T17:26:14.179Z,11.50
2023-03-13T17:28:40.723Z,11.60
2023-03-13T17:31:08.502Z,11.60
2023-03-13T17:33:35.075Z,11.60
2023-03-13T17:36:01.611Z,11.70
2023-03-13T17:38:28.106Z,11.70
2023-03-13T17:40:54.659Z,11.60
2023-03-13T17:43:21.186Z,11.60
2023-03-13T17:45:47.673Z,11.60
2023-03-13T17:48:14.173Z,11.60
2023-03-13T17:50:40.818Z,11.60
2023-03-13T17:53:08.384Z,11.60
2023-03-13T17:55:34.977Z,11.50
2023-03-13T17:58:01.477Z,11.60
2023-03-13T18:00:30.117Z,11.50
2023-03-13T18:02:57.180Z,11.50
2023-03-13T18:05:23.724Z,11.50
2023-03-13T18:07:50.636Z,11.40
2023-03-13T18:10:21.727Z,11.40
2023-03-13T18:12:48.246Z,11.40
2023-03-13T18:15:14.841Z,11.40
2023-03-13T18:17:41.412Z,11.40
2023-03-13T18:20:15.347Z,11.40
2023-03-13T18:22:42.297Z,11.30
2023-03-13T18:25:09.051Z,11.30
2023-03-13T18:27:35.580Z,11.40
2023-03-13T18:30:02.307Z,11.50
2023-03-13T18:32:29.966Z,11.50
2023-03-13T18:34:56.697Z,11.50
2023-03-13T18:37:23.175Z,11.40
2023-03-13T18:39:50.496Z,11.50
2023-03-13T18:42:17.399Z,11.50
2023-03-13T18:44:44.027Z,11.60
2023-03-13T18:47:15.240Z,11.90
2023-03-13T18:49:41.767Z,11.20
2023-03-13T18:52:10.368Z,10.30
2023-03-13T18:54:37.082Z,9.70
2023-03-13T18:57:10.385Z,9.40
2023-03-13T18:59:36.880Z,9.30
2023-03-13T19:02:05.526Z,9.20
2023-03-13T19:04:32.173Z,9.10
2023-03-13T19:06:58.695Z,8.90
2023-03-13T19:09:43.127Z,8.80
2023-03-13T19:12:11.426Z,8.80
2023-03-13T19:14:38.009Z,8.70
2023-03-13T19:17:06.924Z,8.60
2023-03-13T19:19:33.444Z,8.60
2023-03-13T19:22:00.877Z,8.60
2023-03-13T19:24:27.523Z,8.70
2023-03-13T19:26:58.443Z,8.80
2023-03-13T19:29:26.834Z,8.80
2023-03-13T19:31:54.640Z,8.90
2023-03-13T19:34:21.410Z,8.90
2023-03-13T19:36:48.722Z,8.90
2023-03-13T19:39:19.215Z,8.80
2023-03-13T19:41:47.870Z,8.90
2023-03-13T19:44:14.705Z,8.80
2023-03-13T19:46:43.713Z,8.80
2023-03-13T19:49:18.001Z,8.80
2023-03-13T19:51:44.718Z,8.80
2023-03-13T19:54:11.671Z,8.80
2023-03-13T19:56:39.406Z,8.70
2023-03-13T19:59:07.324Z,8.70
2023-03-13T20:01:33.976Z,8.70
2023-03-13T20:04:00.642Z,8.70
2023-03-13T20:06:32.505Z,8.70
2023-03-13T20:09:00.048Z,8.70
2023-03-13T20:11:27.216Z,8.70
2023-03-13T20:13:53.879Z,8.70
2023-03-13T20:16:20.415Z,8.60
2023-03-13T20:18:48.513Z,8.70
2023-03-13T20:21:16.359Z,8.70
2023-03-13T20:23:43.401Z,8.70
2023-03-13T20:26:11.066Z,8.70
2023-03-13T20:28:38.206Z,8.80
2023-03-13T20:31:05.193Z,8.80
2023-03-13T20:33:31.859Z,8.90
2023-03-13T20:36:05.958Z,9.00
2023-03-13T20:38:32.811Z,9.00
2023-03-13T20:40:59.448Z,9.00
2023-03-13T20:43:26.057Z,9.00
2023-03-13T20:45:52.808Z,9.00
2023-03-13T20:48:19.727Z,9.00
2023-03-13T20:50:49.268Z,9.00
2023-03-13T20:53:15.791Z,9.00
2023-03-13T20:55:42.363Z,9.00
2023-03-13T20:58:08.905Z,9.00
2023-03-13T21:00:35.510Z,9.00
2023-03-13T21:03:02.151Z,8.90
2023-03-13T21:05:28.818Z,9.00
2023-03-13T21:07:55.352Z,8.90
2023-03-13T21:10:21.850Z,8.90
2023-03-13T21:12:48.606Z,8.90
2023-03-13T21:15:15.684Z,8.90
2023-03-13T21:17:42.235Z,9.00
2023-03-13T21:20:13.144Z,9.00
2023-03-13T21:22:40.317Z,9.10
2023-03-13T21:25:07.855Z,9.10
2023-03-13T21:27:35.451Z,9.10
2023-03-13T21:30:03.298Z,9.10
2023-03-13T21:32:30.026Z,9.10
2023-03-13T21:34:56.545Z,9.10
2023-03-13T21:37:23.645Z,9.10
2023-03-13T21:39:51.119Z,9.20
2023-03-13T21:42:18.032Z,9.30
2023-03-13T21:44:45.483Z,9.30
2023-03-13T21:47:12.093Z,9.30
2023-03-13T21:49:38.716Z,9.30
2023-03-13T21:52:05.845Z,9.30
2023-03-13T21:54:32.409Z,9.30
2023-03-13T21:56:58.897Z,9.30
2023-03-13T21:59:27.198Z,9.40
2023-03-13T22:01:54.574Z,9.50
2023-03-13T22:04:21.122Z,9.50
2023-03-13T22:06:47.712Z,9.40
2023-03-13T22:09:14.290Z,9.50
2023-03-13T22:11:40.838Z,9.40
2023-03-13T22:14:07.446Z,9.50
2023-03-13T22:16:34.100Z,9.50
2023-03-13T22:19:00.665Z,9.40
2023-03-13T22:21:27.268Z,9.50
2023-03-13T22:23:53.876Z,9.50
2023-03-13T22:26:20.501Z,9.50
2023-03-13T22:28:47.027Z,9.40
2023-03-13T22:31:13.558Z,9.40
2023-03-13T22:33:40.080Z,9.50
2023-03-13T22:36:07.134Z,9.40
2023-03-13T22:38:38.780Z,9.40
2023-03-13T22:41:06.695Z,9.40
2023-03-13T22:43:33.362Z,9.30
2023-03-13T22:46:00.192Z,9.40
2023-03-13T22:48:26.918Z,9.40
2023-03-13T22:51:04.022Z,9.40
2023-03-13T22:53:31.219Z,9.40
2023-03-13T22:55:57.861Z,9.30
2023-03-13T22:58:24.588Z,9.30
2023-03-13T23:00:51.189Z,9.20
2023-03-13T23:03:18.757Z,9.30
2023-03-13T23:05:45.931Z,9.30
2023-03-13T23:08:12.561Z,9.20
2023-03-13T23:10:41.164Z,9.30
2023-03-13T23:13:07.684Z,9.30
2023-03-13T23:15:54.669Z,9.30
2023-03-13T23:18:20.720Z,9.30
2023-03-13T23:20:47.362Z,9.30
2023-03-13T23:23:13.905Z,9.30
2023-03-13T23:25:40.480Z,9.30
2023-03-13T23:28:07.052Z,9.30
2023-03-13T23:30:33.947Z,9.20
2023-03-13T23:33:00.504Z,9.20
2023-03-13T23:35:27.005Z,9.20
2023-03-13T23:37:53.844Z,9.20
2023-03-13T23:40:20.983Z,9.10
2023-03-13T23:42:50.171Z,9.10
2023-03-13T23:45:17.458Z,9.10
2023-03-13T23:47:44.245Z,9.10
2023-03-13T23:50:11.927Z,9.00
2023-03-13T23:52:38.628Z,9.00
2023-03-13T23:55:05.570Z,8.90
2023-03-13T23:57:32.433Z,8.90
